createdAt,value
2023-05-22T00:01:57.119Z,18.80
2023-05-22T00:06:59.496Z,18.80
2023-05-22T00:12:01.591Z,18.80
2023-05-22T00:17:04.320Z,18.80
2023-05-22T00:22:06.711Z,18.80
2023-05-22T00:27:08.752Z,18.80
2023-05-22T00:32:10.836Z,18.70
2023-05-22T00:37:12.923Z,18.70
2023-05-22T00:42:15.120Z,18.70
2023-05-22T00:47:17.246Z,18.70
2023-05-22T00:52:19.912Z,18.60
2023-05-22T00:57:23.480Z,18.50
2023-05-22T01:02:25.554Z,18.50
2023-05-22T01:07:27.736Z,18.50
2023-05-22T01:12:29.776Z,18.40
2023-05-22T01:17:41.922Z,18.40
2023-05-22T01:23:13.817Z,18.30
2023-05-22T01:28:31.102Z,18.20
2023-05-22T01:33:41.985Z,18.10
2023-05-22T01:38:44.307Z,18.10
2023-05-22T01:43:46.651Z,18.10
2023-05-22T01:48:48.702Z,18.00
2023-05-22T01:54:18.406Z,18.00
2023-05-22T01:59:31.002Z,18.00
2023-05-22T02:04:37.892Z,17.90
2023-05-22T02:10:00.390Z,17.80
2023-05-22T02:15:03.491Z,17.80
2023-05-22T02:20:07.692Z,17.70
2023-05-22T02:25:17.566Z,17.60
2023-05-22T02:30:20.746Z,17.50
2023-05-22T02:35:25.680Z,17.40
2023-05-22T02:40:27.994Z,17.40
2023-05-22T02:45:30.376Z,17.40
2023-05-22T02:50:32.633Z,17.40
2023-05-22T02:55:34.919Z,17.40
2023-05-22T03:00:38.355Z,17.50
2023-05-22T03:05:40.631Z,17.50
2023-05-22T03:10:43.493Z,17.50
2023-05-22T03:15:45.560Z,17.50
2023-05-22T03:20:50.809Z,17.50
2023-05-22T03:25:53.101Z,17.50
2023-05-22T03:30:56.298Z,17.50
2023-05-22T03:36:03.753Z,17.40
2023-05-22T03:41:05.949Z,17.30
2023-05-22T03:46:08.141Z,17.40
2023-05-22T03:51:10.290Z,17.40
2023-05-22T03:56:12.416Z,17.30
2023-05-22T04:01:14.519Z,17.40
2023-05-22T04:06:17.814Z,17.40
2023-05-22T04:11:22.336Z,17.40
2023-05-22T04:16:24.445Z,17.40
2023-05-22T04:21:26.622Z,17.40
2023-05-22T04:26:32.383Z,17.40
2023-05-22T04:31:34.579Z,17.40
2023-05-22T04:36:36.801Z,17.40
2023-05-22T04:41:39.229Z,17.50
2023-05-22T04:46:42.490Z,17.50
2023-05-22T04:51:44.757Z,17.50
2023-05-22T04:57:05.882Z,17.60
2023-05-22T05:02:26.858Z,17.60
2023-05-22T05:07:29.609Z,17.70
2023-05-22T05:12:32.622Z,17.80
2023-05-22T05:17:34.778Z,17.90
2023-05-22T05:22:37.600Z,18.00
2023-05-22T05:27:41.147Z,18.10
2023-05-22T05:32:44.564Z,18.30
2023-05-22T05:38:01.834Z,18.30
2023-05-22T05:43:06.646Z,18.50
2023-05-22T05:48:12.206Z,18.50
2023-05-22T05:53:18.233Z,18.40
2023-05-22T05:58:25.980Z,18.30
2023-05-22T06:04:04.439Z,18.20
2023-05-22T06:09:10.284Z,18.40
2023-05-22T06:14:42.232Z,18.40
2023-05-22T06:19:44.369Z,18.30
2023-05-22T06:24:47.305Z,18.30
2023-05-22T06:29:55.263Z,18.20
2023-05-22T06:35:03.634Z,18.00
2023-05-22T06:40:07.698Z,17.80
2023-05-22T06:45:19.941Z,17.80
2023-05-22T06:50:42.446Z,17.70
2023-05-22T06:55:44.636Z,17.40
2023-05-22T07:00:55.495Z,17.40
2023-05-22T07:06:06.413Z,17.30
2023-05-22T07:11:09.387Z,17.10
2023-05-22T07:16:12.297Z,16.90
2023-05-22T07:21:14.596Z,16.70
2023-05-22T07:26:18.888Z,16.60
2023-05-22T07:31:31.779Z,16.60
2023-05-22T07:36:35.136Z,16.60
2023-05-22T07:41:38.890Z,16.60
2023-05-22T07:46:43.852Z,16.50
2023-05-22T07:51:50.181Z,16.60
2023-05-22T07:56:56.359Z,16.70
2023-05-22T08:02:00.117Z,16.60
2023-05-22T08:07:02.746Z,16.80
2023-05-22T08:12:05.111Z,16.80
2023-05-22T08:17:09.921Z,16.60
2023-05-22T08:22:12.080Z,16.40
2023-05-22T08:27:14.115Z,16.50
2023-05-22T08:32:16.326Z,16.60
2023-05-22T08:37:18.639Z,16.40
2023-05-22T08:42:20.835Z,16.50
2023-05-22T08:47:26.203Z,16.80
2023-05-22T08:52:52.655Z,16.90
2023-05-22T08:57:57.169Z,17.00
2023-05-22T09:02:59.764Z,17.30
2023-05-22T09:08:15.927Z,17.50
2023-05-22T09:13:29.550Z,17.50
2023-05-22T09:18:32.324Z,17.50
2023-05-22T09:23:34.958Z,17.50
2023-05-22T09:28:37.779Z,17.40
2023-05-22T09:33:40.003Z,17.40
2023-05-22T09:38:42.305Z,17.40
2023-05-22T09:43:51.093Z,17.20
2023-05-22T09:48:53.845Z,17.30
2023-05-22T09:54:06.931Z,17.50
2023-05-22T09:59:10.037Z,17.70
2023-05-22T10:04:14.543Z,17.80
2023-05-22T10:09:19.469Z,17.90
2023-05-22T10:14:23.375Z,18.00
2023-05-22T10:19:27.977Z,18.30
2023-05-22T10:24:30.811Z,18.40
2023-05-22T10:29:40.692Z,18.60
2023-05-22T10:35:19.983Z,18.60
2023-05-22T10:40:31.718Z,18.50
2023-05-22T10:45:34.088Z,18.70
2023-05-22T10:50:36.704Z,18.70
2023-05-22T10:55:48.368Z,18.70
2023-05-22T11:00:55.978Z,18.70
2023-05-22T11:05:58.094Z,18.60
2023-05-22T11:11:11.522Z,18.40
2023-05-22T11:16:16.570Z,18.40
2023-05-22T11:21:18.869Z,18.40
2023-05-22T11:26:23.052Z,18.40
2023-05-22T11:31:27.066Z,18.70
2023-05-22T11:36:29.758Z,18.90
2023-05-22T11:41:34.162Z,19.00
2023-05-22T11:46:36.447Z,19.10
2023-05-22T11:51:40.479Z,19.20
2023-05-22T11:56:42.508Z,19.30
2023-05-22T12:01:44.589Z,19.60
2023-05-22T12:06:46.740Z,19.60
2023-05-22T12:11:49.232Z,19.80
2023-05-22T12:16:52.638Z,19.90
2023-05-22T12:21:55.241Z,19.90
2023-05-22T12:26:57.432Z,20.00
2023-05-22T12:32:04.316Z,20.40
2023-05-22T12:37:22.028Z,20.80
2023-05-22T15:09:47.355Z,28.00
2023-05-22T15:14:49.797Z,28.10
2023-05-22T15:19:51.853Z,29.00
2023-05-22T15:25:07.927Z,29.80
2023-05-22T15:30:10.483Z,31.40
2023-05-22T15:35:15.356Z,30.60
2023-05-22T15:40:22.684Z,31.00
2023-05-22T15:45:24.877Z,32.00
2023-05-22T15:50:27.057Z,32.50
2023-05-22T15:55:29.256Z,32.80
2023-05-22T16:00:31.297Z,32.70
2023-05-22T16:05:34.998Z,33.60
2023-05-22T16:10:37.557Z,34.80
2023-05-22T16:15:41.245Z,34.00
2023-05-22T16:20:43.585Z,34.00
2023-05-22T16:25:46.319Z,34.10
2023-05-22T16:30:48.599Z,34.80
2023-05-22T16:35:50.861Z,33.40
2023-05-22T16:40:55.171Z,33.30
2023-05-22T16:45:57.357Z,32.80
2023-05-22T16:50:59.449Z,32.30
2023-05-22T16:56:01.676Z,32.10
2023-05-22T17:01:06.384Z,30.90
2023-05-22T17:06:09.115Z,29.80
2023-05-22T17:11:11.483Z,30.00
2023-05-22T17:16:13.967Z,30.10
2023-05-22T17:21:17.606Z,30.50
2023-05-22T17:26:19.693Z,29.80
2023-05-22T17:31:23.054Z,29.20
2023-05-22T17:36:28.940Z,28.90
2023-05-22T17:41:31.233Z,28.20
2023-05-22T17:46:33.521Z,27.40
2023-05-22T17:51:35.591Z,27.10
2023-05-22T17:56:37.717Z,25.30
2023-05-22T18:01:39.902Z,24.40
2023-05-22T18:06:42.309Z,23.90
2023-05-22T18:11:44.416Z,23.10
2023-05-22T18:16:46.754Z,22.50
2023-05-22T18:21:48.832Z,21.70
2023-05-22T18:26:50.984Z,21.30
2023-05-22T18:31:53.175Z,21.00
2023-05-22T18:36:55.459Z,20.70
2023-05-22T18:42:00.498Z,20.60
2023-05-22T18:47:02.805Z,20.40
2023-05-22T18:52:05.194Z,20.30
2023-05-22T18:57:07.364Z,20.10
2023-05-22T19:02:09.486Z,19.80
2023-05-22T19:07:11.614Z,19.50
2023-05-22T19:12:13.850Z,19.20
2023-05-22T19:17:16.751Z,18.90
2023-05-22T19:22:18.919Z,18.70
2023-05-22T19:27:20.984Z,18.50
2023-05-22T19:32:23.135Z,18.30
2023-05-22T19:37:25.306Z,18.30
2023-05-22T19:42:27.384Z,18.20
2023-05-22T19:47:29.589Z,17.90
2023-05-22T19:52:31.707Z,17.70
2023-05-22T19:57:33.827Z,17.60
2023-05-22T20:02:36.458Z,17.50
2023-05-22T20:07:39.525Z,17.20
2023-05-22T20:12:41.761Z,17.00
2023-05-22T20:17:47.936Z,16.90
2023-05-22T20:22:51.739Z,16.70
2023-05-22T20:27:53.801Z,16.60
2023-05-22T20:32:56.000Z,16.50
2023-05-22T20:38:04.533Z,16.40
2023-05-22T20:43:06.792Z,16.40
2023-05-22T20:48:08.885Z,16.30
2023-05-22T20:53:11.394Z,16.30
2023-05-22T20:58:14.815Z,16.30
2023-05-22T21:03:17.894Z,16.20
2023-05-22T21:08:21.356Z,16.00
2023-05-22T21:13:23.386Z,15.80
2023-05-22T21:18:25.648Z,15.60
2023-05-22T21:23:27.829Z,15.50
2023-05-22T21:28:30.200Z,15.40
2023-05-22T21:33:32.330Z,15.10
2023-05-22T21:38:34.717Z,15.00
2023-05-22T21:43:36.828Z,14.90
2023-05-22T21:48:39.040Z,14.80
2023-05-22T21:53:41.792Z,14.80
2023-05-22T21:58:43.829Z,14.80
2023-05-22T22:03:45.985Z,14.90
2023-05-22T22:08:48.221Z,14.90
2023-05-22T22:13:50.416Z,14.80
2023-05-22T22:18:52.713Z,14.80
2023-05-22T22:23:55.205Z,14.70
2023-05-22T22:28:57.813Z,14.70
2023-05-22T22:33:59.891Z,14.70
2023-05-22T22:39:02.207Z,14.60
2023-05-22T22:44:04.324Z,14.60
2023-05-22T22:49:07.225Z,14.60
2023-05-22T22:54:09.473Z,14.60
2023-05-22T22:59:11.801Z,14.60
2023-05-22T23:04:14.366Z,14.50
2023-05-22T23:09:16.677Z,14.40
2023-05-22T23:14:20.477Z,14.40
2023-05-22T23:19:22.726Z,14.40
2023-05-22T23:24:24.814Z,14.40
2023-05-22T23:29:27.070Z,14.40
2023-05-22T23:34:29.142Z,14.50
2023-05-22T23:39:31.229Z,14.50
2023-05-22T23:44:33.357Z,14.60
2023-05-22T23:49:35.463Z,14.70
2023-05-22T23:54:37.548Z,14.60
2023-05-22T23:59:40.589Z,14.70
